Time;durP1;ratioP1;P1;durP2;ratioP2;P2;SDS_P1;SDS_P2;PMS_P1;PMS_P2;Temp;Humidity;BMP_temperature;BMP_pressure;BME280_temperature;BME280_humidity;BME280_pressure;Samples;Min_cycle;Max_cycle;Signal;HPM_P1;HPM_P2
2024/02/03 00:00:10;;;;;;;11.63;7.07;;;;;;;;;;4993610;28;20183;-82
2024/02/03 00:02:37;;;;;;;12.23;7.95;;;;;;;;;;4994264;28;20074;-82
2024/02/03 00:05:04;;;;;;;9.05;6.95;;;;;;;;;;4992740;28;20489;-82
2024/02/03 00:07:31;;;;;;;9.48;7.18;;;;;;;;;;4993832;28;20050;-82
2024/02/03 00:09:58;;;;;;;8.65;6.57;;;;;;;;;;4994217;28;20050;-82
2024/02/03 00:12:28;;;;;;;10.50;6.93;;;;;;;;;;4994690;28;20051;-82
2024/02/03 00:14:56;;;;;;;10.18;7.00;;;;;;;;;;4994187;28;20046;-82
2024/02/03 00:17:23;;;;;;;8.80;6.65;;;;;;;;;;4992921;28;20046;-83
2024/02/03 00:19:53;;;;;;;7.80;5.60;;;;;;;;;;4991782;28;20038;-82
2024/02/03 00:22:20;;;;;;;6.95;5.53;;;;;;;;;;4991175;28;20053;-83
2024/02/03 00:24:47;;;;;;;6.93;5.80;;;;;;;;;;4998947;28;20167;-82
2024/02/03 00:27:14;;;;;;;7.57;5.55;;;;;;;;;;5012001;28;20053;-83
2024/02/03 00:29:41;;;;;;;7.40;5.15;;;;;;;;;;4994862;28;20073;-82
2024/02/03 00:32:08;;;;;;;10.20;5.78;;;;;;;;;;5011669;28;20050;-82
2024/02/03 00:34:35;;;;;;;7.95;5.30;;;;;;;;;;4999278;28;20038;-82
2024/02/03 00:37:03;;;;;;;8.25;4.57;;;;;;;;;;4994673;28;20054;-83
2024/02/03 00:39:31;;;;;;;9.52;4.70;;;;;;;;;;5001303;28;20065;-82
2024/02/03 00:41:58;;;;;;;6.40;4.55;;;;;;;;;;5013085;28;20132;-83
2024/02/03 00:44:24;;;;;;;8.32;4.78;;;;;;;;;;5012633;28;20057;-82
2024/02/03 00:46:51;;;;;;;5.07;2.70;;;;;;;;;;5012680;28;20049;-82
2024/02/03 00:49:19;;;;;;;4.63;2.65;;;;;;;;;;5012483;28;20049;-83
2024/02/03 00:51:46;;;;;;;7.85;3.30;;;;;;;;;;5014098;28;20072;-82
2024/02/03 00:54:13;;;;;;;5.57;2.95;;;;;;;;;;5012222;28;20473;-82
2024/02/03 00:56:40;;;;;;;7.60;3.00;;;;;;;;;;5014070;28;20099;-82
2024/02/03 00:59:06;;;;;;;4.60;2.85;;;;;;;;;;5013545;28;20061;-82
2024/02/03 01:01:33;;;;;;;7.32;3.35;;;;;;;;;;5012580;28;20042;-82
2024/02/03 01:04:00;;;;;;;4.65;3.35;;;;;;;;;;5012669;28;20060;-82
2024/02/03 01:06:27;;;;;;;5.95;4.13;;;;;;;;;;5012194;28;20037;-82
2024/02/03 01:08:54;;;;;;;6.65;4.95;;;;;;;;;;5013373;28;20038;-82
2024/02/03 01:11:21;;;;;;;8.80;5.22;;;;;;;;;;5011795;28;20382;-82
2024/02/03 01:13:48;;;;;;;7.82;5.72;;;;;;;;;;5012575;28;20054;-82
2024/02/03 01:16:15;;;;;;;9.00;6.38;;;;;;;;;;5011990;28;20054;-82
2024/02/03 01:18:42;;;;;;;8.75;6.75;;;;;;;;;;5013681;28;20038;-81
2024/02/03 01:21:22;;;;;;;10.63;7.43;;;;;;;;;;5011943;28;20061;-82
2024/02/03 01:23:49;;;;;;;13.38;7.85;;;;;;;;;;5012629;28;20046;-82
2024/02/03 01:26:16;;;;;;;15.45;8.70;;;;;;;;;;5008420;28;20050;-82
2024/02/03 01:28:42;;;;;;;11.25;7.97;;;;;;;;;;4996166;28;20412;-82
2024/02/03 01:31:09;;;;;;;13.35;7.90;;;;;;;;;;5011805;28;20049;-83
2024/02/03 01:33:36;;;;;;;13.10;8.23;;;;;;;;;;5007550;28;20065;-82
2024/02/03 01:36:04;;;;;;;11.02;7.70;;;;;;;;;;4992856;28;20050;-82
2024/02/03 01:38:31;;;;;;;9.82;7.70;;;;;;;;;;4993346;28;20053;-82
2024/02/03 01:40:57;;;;;;;11.52;8.13;;;;;;;;;;5008804;28;20041;-82
2024/02/03 01:43:24;;;;;;;10.75;7.97;;;;;;;;;;5012841;28;20060;-83
2024/02/03 01:45:51;;;;;;;16.63;7.65;;;;;;;;;;5012033;28;20071;-82
2024/02/03 01:48:19;;;;;;;14.13;7.65;;;;;;;;;;5011463;28;20053;-82
2024/02/03 01:50:52;;;;;;;26.10;7.70;;;;;;;;;;5013386;28;20081;-83
2024/02/03 01:53:19;;;;;;;21.42;8.75;;;;;;;;;;5012946;28;20046;-82
2024/02/03 01:55:49;;;;;;;29.83;8.18;;;;;;;;;;5013155;28;20133;-82
2024/02/03 01:58:16;;;;;;;12.75;7.53;;;;;;;;;;5011445;28;20053;-83
2024/02/03 02:00:44;;;;;;;9.38;6.80;;;;;;;;;;5013286;28;20134;-82
2024/02/03 02:03:13;;;;;;;10.65;7.57;;;;;;;;;;5011304;28;20050;-82
2024/02/03 02:05:41;;;;;;;10.15;6.60;;;;;;;;;;5027969;28;20049;-82
2024/02/03 02:08:07;;;;;;;8.93;6.90;;;;;;;;;;5011399;28;20077;-82
2024/02/03 02:10:34;;;;;;;9.55;6.43;;;;;;;;;;5011721;28;20042;-82
2024/02/03 02:13:02;;;;;;;7.30;5.93;;;;;;;;;;5013125;28;20060;-82
2024/02/03 02:15:30;;;;;;;6.75;6.05;;;;;;;;;;4994852;28;20603;-82
2024/02/03 02:17:58;;;;;;;6.18;4.57;;;;;;;;;;5013001;28;20038;-82
2024/02/03 02:20:26;;;;;;;5.82;4.90;;;;;;;;;;5012762;28;20049;-82
2024/02/03 02:22:53;;;;;;;6.87;5.07;;;;;;;;;;4999374;28;20049;-82
2024/02/03 02:25:20;;;;;;;6.68;5.13;;;;;;;;;;5015179;28;20054;-82
2024/02/03 02:27:47;;;;;;;6.22;4.55;;;;;;;;;;5015583;28;20046;-82
2024/02/03 02:30:18;;;;;;;5.82;4.35;;;;;;;;;;5014854;28;20038;-82
2024/02/03 02:32:45;;;;;;;5.80;3.28;;;;;;;;;;5015759;28;20050;-82
2024/02/03 02:35:12;;;;;;;8.47;3.70;;;;;;;;;;5015065;28;20531;-81
2024/02/03 02:37:39;;;;;;;6.97;3.35;;;;;;;;;;5016442;28;20108;-82
2024/02/03 02:40:08;;;;;;;5.70;3.65;;;;;;;;;;5014853;28;20046;-82
2024/02/03 02:42:35;;;;;;;5.35;3.20;;;;;;;;;;5031762;28;20042;-81
2024/02/03 02:45:03;;;;;;;5.18;3.30;;;;;;;;;;4999067;28;20046;-82
2024/02/03 02:47:30;;;;;;;4.03;2.78;;;;;;;;;;5016037;28;20046;-82
2024/02/03 02:49:57;;;;;;;3.03;1.85;;;;;;;;;;4998865;28;20054;-82
2024/02/03 02:52:24;;;;;;;3.10;1.75;;;;;;;;;;5014560;28;20471;-81
2024/02/03 02:54:51;;;;;;;3.83;1.70;;;;;;;;;;5016346;28;20052;-82
2024/02/03 02:57:18;;;;;;;3.70;2.17;;;;;;;;;;5015784;28;20112;-82
2024/02/03 02:59:45;;;;;;;2.67;1.67;;;;;;;;;;5016134;28;20124;-83
2024/02/03 03:02:12;;;;;;;3.03;1.90;;;;;;;;;;5014570;28;20056;-82
2024/02/03 03:04:39;;;;;;;4.80;1.83;;;;;;;;;;5014899;28;20057;-82
2024/02/03 03:07:06;;;;;;;2.63;1.42;;;;;;;;;;5014351;28;20066;-82
2024/02/03 03:09:33;;;;;;;5.13;1.73;;;;;;;;;;4998389;28;20049;-82
2024/02/03 03:11:59;;;;;;;4.15;1.50;;;;;;;;;;5016002;28;20129;-82
2024/02/03 03:14:26;;;;;;;2.35;1.30;;;;;;;;;;5014231;28;20042;-82
2024/02/03 03:16:53;;;;;;;3.85;1.40;;;;;;;;;;5016066;28;20050;-82
2024/02/03 03:19:20;;;;;;;2.95;1.30;;;;;;;;;;5015639;28;20129;-82
2024/02/03 03:21:47;;;;;;;1.95;1.30;;;;;;;;;;4996613;28;20137;-82
2024/02/03 03:24:13;;;;;;;2.17;1.20;;;;;;;;;;5011206;28;20041;-82
2024/02/03 03:26:42;;;;;;;2.28;1.27;;;;;;;;;;4977408;28;20125;-82
2024/02/03 03:29:11;;;;;;;4.13;1.48;;;;;;;;;;4994516;28;20050;-83
2024/02/03 03:31:42;;;;;;;2.80;1.25;;;;;;;;;;4978121;28;20047;-82
2024/02/03 03:34:09;;;;;;;3.22;1.73;;;;;;;;;;4982608;28;20482;-81
2024/02/03 03:36:36;;;;;;;5.35;1.35;;;;;;;;;;4959322;28;20062;-82
2024/02/03 03:39:03;;;;;;;2.30;1.25;;;;;;;;;;4978358;28;20121;-82
2024/02/03 03:41:29;;;;;;;3.47;1.42;;;;;;;;;;4978289;28;20046;-81
2024/02/03 03:43:56;;;;;;;3.30;1.50;;;;;;;;;;4996049;28;20061;-83
2024/02/03 03:46:23;;;;;;;4.45;1.38;;;;;;;;;;4995349;28;20058;-82
2024/02/03 03:48:50;;;;;;;5.88;1.60;;;;;;;;;;4994541;28;20099;-82
2024/02/03 03:51:16;;;;;;;5.60;1.55;;;;;;;;;;4993982;28;20444;-82
2024/02/03 03:53:43;;;;;;;4.35;1.83;;;;;;;;;;4994343;28;20070;-82
2024/02/03 03:56:10;;;;;;;5.22;1.88;;;;;;;;;;4993947;28;20046;-82
2024/02/03 03:58:37;;;;;;;12.20;2.40;;;;;;;;;;4994357;28;20046;-81
2024/02/03 04:01:04;;;;;;;27.33;2.70;;;;;;;;;;4994923;28;20055;-82
2024/02/03 04:03:31;;;;;;;33.20;2.70;;;;;;;;;;4995461;28;20046;-82
2024/02/03 04:05:58;;;;;;;21.35;2.55;;;;;;;;;;4994256;28;20054;-82
2024/02/03 04:08:24;;;;;;;23.33;2.67;;;;;;;;;;4977653;28;20064;-82
2024/02/03 04:10:51;;;;;;;11.50;2.20;;;;;;;;;;4977732;28;20101;-82
2024/02/03 04:13:18;;;;;;;62.25;3.85;;;;;;;;;;4993821;28;20417;-82
2024/02/03 04:15:45;;;;;;;52.50;3.60;;;;;;;;;;4993909;28;20129;-82
2024/02/03 04:18:13;;;;;;;67.25;4.43;;;;;;;;;;5009668;28;20050;-82
2024/02/03 04:20:40;;;;;;;88.85;4.13;;;;;;;;;;4993863;28;20069;-82
2024/02/03 04:23:06;;;;;;;119.72;5.20;;;;;;;;;;4993461;28;20430;-82
2024/02/03 04:25:33;;;;;;;106.43;4.65;;;;;;;;;;4964090;28;20471;-82
2024/02/03 04:28:00;;;;;;;59.55;3.80;;;;;;;;;;4974265;28;20043;-82
2024/02/03 04:30:27;;;;;;;3.88;2.20;;;;;;;;;;4974691;28;20050;-82
2024/02/03 04:32:53;;;;;;;5.07;2.30;;;;;;;;;;4976182;28;20133;-82
2024/02/03 04:35:20;;;;;;;5.40;2.22;;;;;;;;;;4994387;28;20043;-82
2024/02/03 04:37:47;;;;;;;3.88;1.63;;;;;;;;;;4993497;28;20474;-82
2024/02/03 04:40:14;;;;;;;4.07;1.40;;;;;;;;;;5003763;28;20038;-82
2024/02/03 04:42:41;;;;;;;3.42;1.95;;;;;;;;;;5013060;28;20477;-82
2024/02/03 04:45:09;;;;;;;3.03;1.70;;;;;;;;;;5012654;28;20072;-82
2024/02/03 04:47:36;;;;;;;2.35;1.70;;;;;;;;;;5014139;28;20037;-82
2024/02/03 04:50:04;;;;;;;3.53;1.85;;;;;;;;;;5013015;28;20042;-82
2024/02/03 04:52:31;;;;;;;3.42;1.75;;;;;;;;;;5012572;28;20125;-82
2024/02/03 04:54:58;;;;;;;3.15;1.73;;;;;;;;;;5012920;28;20060;-82
2024/02/03 04:57:24;;;;;;;2.75;1.60;;;;;;;;;;5012347;28;20046;-83
2024/02/03 04:59:51;;;;;;;3.80;1.88;;;;;;;;;;5013019;28;20389;-82
2024/02/03 05:02:18;;;;;;;3.47;1.70;;;;;;;;;;4996004;28;20070;-83
2024/02/03 05:04:44;;;;;;;2.95;1.67;;;;;;;;;;5013912;28;20153;-82
2024/02/03 05:07:11;;;;;;;2.80;1.65;;;;;;;;;;5012239;28;20100;-83
2024/02/03 05:09:38;;;;;;;2.80;2.00;;;;;;;;;;5012511;28;20104;-82
2024/02/03 05:12:05;;;;;;;3.25;1.70;;;;;;;;;;4995508;28;20100;-82
2024/02/03 05:14:32;;;;;;;2.28;1.42;;;;;;;;;;5012609;28;20046;-82
2024/02/03 05:16:59;;;;;;;2.90;1.67;;;;;;;;;;5012538;28;20469;-83
2024/02/03 05:19:27;;;;;;;1.95;1.55;;;;;;;;;;5013103;28;20045;-82
2024/02/03 05:21:54;;;;;;;2.90;1.45;;;;;;;;;;5012605;28;20477;-82
2024/02/03 05:24:22;;;;;;;2.92;1.52;;;;;;;;;;4995320;28;20038;-82
2024/02/03 05:26:49;;;;;;;2.35;1.73;;;;;;;;;;5012323;28;20428;-82
2024/02/03 05:29:16;;;;;;;4.22;1.85;;;;;;;;;;5011864;28;20042;-82
2024/02/03 05:31:43;;;;;;;2.60;1.92;;;;;;;;;;5013314;28;20049;-82
2024/02/03 05:34:11;;;;;;;4.28;3.60;;;;;;;;;;5010892;28;20053;-82
2024/02/03 05:36:38;;;;;;;3.25;2.83;;;;;;;;;;5009698;28;20049;-82
2024/02/03 05:39:05;;;;;;;3.80;2.28;;;;;;;;;;5010224;28;20046;-82
2024/02/03 05:41:32;;;;;;;4.88;1.98;;;;;;;;;;5022979;28;20532;-83
2024/02/03 05:43:59;;;;;;;2.97;2.40;;;;;;;;;;4994219;28;20042;-82
2024/02/03 05:46:25;;;;;;;3.03;2.33;;;;;;;;;;5011228;28;20052;-82
2024/02/03 05:48:54;;;;;;;4.22;2.00;;;;;;;;;;5010285;28;20046;-82
2024/02/03 05:51:21;;;;;;;3.20;1.85;;;;;;;;;;4993716;28;20037;-82
2024/02/03 05:53:48;;;;;;;2.80;2.05;;;;;;;;;;4997572;28;20049;-82
2024/02/03 05:56:15;;;;;;;3.40;1.85;;;;;;;;;;5010462;28;20037;-83
2024/02/03 05:58:43;;;;;;;3.83;1.83;;;;;;;;;;5010282;28;20049;-82
2024/02/03 06:01:10;;;;;;;3.55;1.75;;;;;;;;;;4993870;28;20412;-82
2024/02/03 06:03:37;;;;;;;3.00;1.58;;;;;;;;;;4998302;28;20482;-82
2024/02/03 06:06:04;;;;;;;2.55;1.63;;;;;;;;;;4993709;28;20482;-82
2024/02/03 06:08:50;;;;;;;2.40;1.52;;;;;;;;;;5000560;28;20042;-83
2024/02/03 06:11:17;;;;;;;2.40;1.30;;;;;;;;;;5005993;28;20046;-82
2024/02/03 06:13:45;;;;;;;4.65;1.35;;;;;;;;;;5010399;28;20053;-83
2024/02/03 06:16:12;;;;;;;2.25;1.38;;;;;;;;;;5009671;28;20076;-83
2024/02/03 06:18:39;;;;;;;3.17;1.52;;;;;;;;;;4999994;28;20047;-83
2024/02/03 06:21:06;;;;;;;4.05;1.55;;;;;;;;;;5008351;28;20078;-82
2024/02/03 06:23:33;;;;;;;3.10;1.50;;;;;;;;;;4983355;28;20047;-82
2024/02/03 06:26:00;;;;;;;2.78;1.45;;;;;;;;;;4992296;28;20053;-83
2024/02/03 06:28:26;;;;;;;2.70;1.42;;;;;;;;;;5006623;28;20126;-82
2024/02/03 06:30:53;;;;;;;2.65;1.40;;;;;;;;;;4992010;28;20054;-82
2024/02/03 06:33:20;;;;;;;3.30;1.60;;;;;;;;;;4996841;28;20528;-82
2024/02/03 06:35:47;;;;;;;2.22;1.30;;;;;;;;;;5010624;28;20133;-83
2024/02/03 06:38:14;;;;;;;2.15;1.25;;;;;;;;;;5011163;28;20053;-83
2024/02/03 06:40:41;;;;;;;3.90;1.42;;;;;;;;;;4991667;28;20053;-83
2024/02/03 06:43:08;;;;;;;4.45;1.67;;;;;;;;;;4992795;28;20054;-82
2024/02/03 06:45:35;;;;;;;2.42;1.23;;;;;;;;;;4972366;28;20475;-83
2024/02/03 06:48:02;;;;;;;2.58;1.40;;;;;;;;;;5004411;28;20049;-82
2024/02/03 06:50:29;;;;;;;3.33;1.77;;;;;;;;;;4991886;28;20042;-82
2024/02/03 06:52:56;;;;;;;3.95;1.63;;;;;;;;;;4993101;28;20156;-82
2024/02/03 06:55:22;;;;;;;3.42;1.70;;;;;;;;;;4991485;28;20046;-82
2024/02/03 06:57:49;;;;;;;2.00;1.20;;;;;;;;;;4991829;28;20129;-82
2024/02/03 07:00:16;;;;;;;2.67;1.25;;;;;;;;;;4991118;28;20049;-82
2024/02/03 07:02:43;;;;;;;3.70;1.20;;;;;;;;;;4998946;28;20089;-82
2024/02/03 07:05:10;;;;;;;2.25;1.10;;;;;;;;;;5012199;28;20133;-82
2024/02/03 07:07:37;;;;;;;2.78;1.70;;;;;;;;;;5002413;28;20441;-82
2024/02/03 07:10:04;;;;;;;4.68;1.90;;;;;;;;;;4988991;28;20129;-81
2024/02/03 07:12:31;;;;;;;4.15;1.60;;;;;;;;;;5012396;28;20384;-82
2024/02/03 07:14:58;;;;;;;3.17;1.80;;;;;;;;;;5014654;28;20045;-82
2024/02/03 07:17:24;;;;;;;2.92;1.27;;;;;;;;;;4997241;28;20042;-83
2024/02/03 07:19:51;;;;;;;3.13;1.58;;;;;;;;;;5014865;28;20042;-82
2024/02/03 07:22:18;;;;;;;4.45;1.35;;;;;;;;;;5015283;28;20091;-82
2024/02/03 07:24:45;;;;;;;2.50;1.33;;;;;;;;;;5007622;28;20039;-83
2024/02/03 07:27:12;;;;;;;5.22;1.60;;;;;;;;;;5006608;28;20073;-82
2024/02/03 07:29:39;;;;;;;1.95;1.20;;;;;;;;;;5013819;28;20065;-82
2024/02/03 07:32:06;;;;;;;3.70;1.67;;;;;;;;;;5011453;28;20053;-81
2024/02/03 07:34:33;;;;;;;3.95;1.40;;;;;;;;;;5008780;28;20105;-82
2024/02/03 07:37:00;;;;;;;5.13;1.85;;;;;;;;;;4987098;28;20104;-82
2024/02/03 07:39:27;;;;;;;6.40;2.40;;;;;;;;;;4987277;28;20124;-82
2024/02/03 07:41:54;;;;;;;4.35;2.10;;;;;;;;;;5000530;28;20038;-82
2024/02/03 07:44:21;;;;;;;6.68;1.90;;;;;;;;;;5011083;28;20051;-82
2024/02/03 07:46:48;;;;;;;5.30;1.85;;;;;;;;;;5013679;28;20565;-82
2024/02/03 07:49:15;;;;;;;2.80;1.98;;;;;;;;;;4993462;28;20100;-88
2024/02/03 07:51:42;;;;;;;2.83;1.98;;;;;;;;;;4998717;28;20481;-83
2024/02/03 07:54:09;;;;;;;5.57;2.00;;;;;;;;;;5004319;28;20042;-84
2024/02/03 07:56:36;;;;;;;3.50;2.20;;;;;;;;;;4996622;28;20119;-86
2024/02/03 07:59:03;;;;;;;5.93;2.55;;;;;;;;;;4996309;28;20511;-86
2024/02/03 08:01:30;;;;;;;3.85;2.10;;;;;;;;;;4992918;28;20050;-85
2024/02/03 08:03:58;;;;;;;4.05;2.10;;;;;;;;;;5007339;28;20073;-83
2024/02/03 08:06:24;;;;;;;5.00;2.38;;;;;;;;;;4995583;28;20041;-83
2024/02/03 08:08:52;;;;;;;4.60;2.30;;;;;;;;;;5005903;28;20119;-81
2024/02/03 08:11:18;;;;;;;4.40;2.20;;;;;;;;;;5007508;28;20077;-83
2024/02/03 08:13:45;;;;;;;4.57;2.22;;;;;;;;;;5003627;28;20059;-84
2024/02/03 08:16:12;;;;;;;4.07;2.33;;;;;;;;;;5005130;28;20050;-83
2024/02/03 08:18:40;;;;;;;8.30;3.00;;;;;;;;;;5009117;28;20401;-83
2024/02/03 08:21:07;;;;;;;4.40;2.17;;;;;;;;;;4981312;28;20163;-83
2024/02/03 08:23:34;;;;;;;4.72;2.20;;;;;;;;;;4996049;28;20470;-84
2024/02/03 08:26:01;;;;;;;3.33;2.10;;;;;;;;;;5004714;28;20081;-83
2024/02/03 08:28:28;;;;;;;4.68;2.40;;;;;;;;;;5006250;28;20038;-83
2024/02/03 08:30:55;;;;;;;4.22;2.55;;;;;;;;;;4992082;28;20089;-83
2024/02/03 08:33:22;;;;;;;8.85;5.30;;;;;;;;;;5015527;28;20536;-83
2024/02/03 08:35:50;;;;;;;15.35;11.07;;;;;;;;;;5009395;28;20042;-83
2024/02/03 08:38:17;;;;;;;34.50;20.38;;;;;;;;;;4997832;28;20125;-83
2024/02/03 08:40:47;;;;;;;18.92;11.48;;;;;;;;;;5008879;28;20508;-83
2024/02/03 08:43:13;;;;;;;11.75;7.63;;;;;;;;;;4991429;28;20053;-83
2024/02/03 08:45:42;;;;;;;7.13;3.70;;;;;;;;;;5010796;28;20503;-83
2024/02/03 08:48:08;;;;;;;6.93;3.58;;;;;;;;;;4981045;28;20046;-83
2024/02/03 08:50:35;;;;;;;5.38;3.70;;;;;;;;;;4985066;28;20563;-82
2024/02/03 08:53:02;;;;;;;8.68;4.78;;;;;;;;;;4998562;28;20052;-81
2024/02/03 08:55:29;;;;;;;7.43;5.88;;;;;;;;;;5026349;28;20283;-82
2024/02/03 08:57:56;;;;;;;6.32;4.10;;;;;;;;;;4993400;28;20050;-82
2024/02/03 09:00:22;;;;;;;8.45;4.60;;;;;;;;;;4996992;28;20058;-82
2024/02/03 09:02:49;;;;;;;8.52;3.80;;;;;;;;;;4975363;28;20485;-82
2024/02/03 09:05:16;;;;;;;8.18;3.50;;;;;;;;;;5005012;28;20100;-82
2024/02/03 09:07:43;;;;;;;11.70;5.97;;;;;;;;;;5010298;28;20052;-82
2024/02/03 09:10:10;;;;;;;10.55;7.85;;;;;;;;;;5026390;28;20061;-81
2024/02/03 09:12:37;;;;;;;6.97;4.65;;;;;;;;;;5003811;28;20053;-83
2024/02/03 09:15:04;;;;;;;10.20;5.18;;;;;;;;;;5005327;28;20069;-83
2024/02/03 09:17:30;;;;;;;10.07;6.15;;;;;;;;;;5007446;28;20460;-87
2024/02/03 09:19:57;;;;;;;7.93;5.07;;;;;;;;;;4993289;28;20070;-86
2024/02/03 09:22:24;;;;;;;6.65;4.55;;;;;;;;;;4991576;28;20045;-82
2024/02/03 09:24:52;;;;;;;10.00;4.90;;;;;;;;;;5004472;28;20046;-82
2024/02/03 09:27:19;;;;;;;8.80;5.18;;;;;;;;;;4984042;28;20042;-82
2024/02/03 09:29:46;;;;;;;10.57;4.90;;;;;;;;;;4990539;28;20113;-82
2024/02/03 09:32:12;;;;;;;9.52;5.25;;;;;;;;;;4991366;28;20042;-82
2024/02/03 09:34:46;;;;;;;20.30;12.13;;;;;;;;;;4987972;28;20046;-82
2024/02/03 09:37:13;;;;;;;12.50;8.10;;;;;;;;;;5009656;28;20037;-83
2024/02/03 09:39:43;;;;;;;13.40;7.82;;;;;;;;;;5009619;28;20135;-84
2024/02/03 09:42:10;;;;;;;13.45;7.15;;;;;;;;;;4978533;28;20413;-82
2024/02/03 09:44:37;;;;;;;16.17;7.97;;;;;;;;;;4991303;28;20405;-82
2024/02/03 09:47:05;;;;;;;13.45;7.25;;;;;;;;;;5008556;28;20389;-80
2024/02/03 09:49:32;;;;;;;15.40;8.20;;;;;;;;;;4991530;28;20050;-83
2024/02/03 09:52:00;;;;;;;10.10;7.40;;;;;;;;;;4992374;28;20039;-83
2024/02/03 09:54:27;;;;;;;13.38;7.10;;;;;;;;;;4991532;28;20050;-82
2024/02/03 09:56:54;;;;;;;14.18;7.25;;;;;;;;;;4992079;28;20054;-82
2024/02/03 09:59:21;;;;;;;12.77;7.90;;;;;;;;;;4991661;28;20141;-82
2024/02/03 10:01:48;;;;;;;15.88;9.93;;;;;;;;;;5007653;28;20137;-82
2024/02/03 10:04:15;;;;;;;16.38;9.65;;;;;;;;;;5007982;28;20043;-83
2024/02/03 10:06:47;;;;;;;16.57;8.40;;;;;;;;;;5008398;28;20540;-83
2024/02/03 10:09:23;;;;;;;13.98;8.48;;;;;;;;;;5007976;28;20100;-82
2024/02/03 10:11:51;;;;;;;18.98;8.52;;;;;;;;;;4991236;28;20380;-82
2024/02/03 10:14:21;;;;;;;17.33;8.57;;;;;;;;;;4994265;28;20072;-88
2024/02/03 10:16:52;;;;;;;13.85;7.72;;;;;;;;;;4995155;28;20052;-82
2024/02/03 10:19:22;;;;;;;19.10;8.18;;;;;;;;;;5011152;28;20547;-82
2024/02/03 10:21:53;;;;;;;19.60;8.60;;;;;;;;;;5011321;28;20074;-82
2024/02/03 10:24:22;;;;;;;16.90;7.87;;;;;;;;;;4994181;28;20038;-82
2024/02/03 10:27:00;;;;;;;13.60;6.70;;;;;;;;;;5011317;28;20289;-82
2024/02/03 10:29:28;;;;;;;13.73;6.53;;;;;;;;;;5010819;28;20070;-82
2024/02/03 10:31:55;;;;;;;13.07;6.85;;;;;;;;;;5034098;28;20045;-82
2024/02/03 10:34:22;;;;;;;12.52;6.13;;;;;;;;;;5033103;28;20045;-83
2024/02/03 10:36:49;;;;;;;14.57;6.65;;;;;;;;;;5017648;28;20419;-82
2024/02/03 10:39:16;;;;;;;13.65;6.68;;;;;;;;;;5034644;28;20069;-82
2024/02/03 10:41:47;;;;;;;12.23;6.88;;;;;;;;;;5037990;28;20041;-82
2024/02/03 10:44:23;;;;;;;11.68;5.45;;;;;;;;;;5074951;28;20044;-83
2024/02/03 10:46:57;;;;;;;12.80;5.55;;;;;;;;;;5029059;28;20036;-82
2024/02/03 10:49:31;;;;;;;12.68;5.47;;;;;;;;;;5020335;28;20079;-83
2024/02/03 10:52:03;;;;;;;10.40;4.95;;;;;;;;;;5021362;28;20037;-83
2024/02/03 10:54:32;;;;;;;16.13;4.63;;;;;;;;;;5020480;28;20099;-82
2024/02/03 10:57:03;;;;;;;11.50;4.72;;;;;;;;;;5021201;28;20128;-83
2024/02/03 10:59:30;;;;;;;13.70;5.22;;;;;;;;;;5020284;28;20541;-82
2024/02/03 11:01:57;;;;;;;13.60;4.53;;;;;;;;;;5037055;28;20033;-83
2024/02/03 11:04:23;;;;;;;6.78;3.33;;;;;;;;;;5020283;28;20136;-83
2024/02/03 11:06:51;;;;;;;9.45;3.88;;;;;;;;;;5037283;28;20052;-82
2024/02/03 11:09:20;;;;;;;7.85;3.10;;;;;;;;;;5036688;28;20049;-82
2024/02/03 11:11:49;;;;;;;8.82;3.90;;;;;;;;;;5037627;28;20114;-82
2024/02/03 11:14:27;;;;;;;9.30;3.30;;;;;;;;;;5036296;28;20079;-82
2024/02/03 11:16:57;;;;;;;20.17;3.70;;;;;;;;;;5021061;28;20476;-82
2024/02/03 11:19:30;;;;;;;9.35;3.13;;;;;;;;;;5019824;28;20036;-83
2024/02/03 11:21:59;;;;;;;8.90;3.38;;;;;;;;;;5037609;28;20137;-82
2024/02/03 11:24:26;;;;;;;7.80;3.17;;;;;;;;;;5035538;28;20048;-82
2024/02/03 11:26:57;;;;;;;7.60;3.20;;;;;;;;;;5019831;28;20045;-83
2024/02/03 11:29:24;;;;;;;10.13;3.65;;;;;;;;;;5019185;28;20049;-83
2024/02/03 11:31:58;;;;;;;10.82;3.17;;;;;;;;;;5035999;28;20047;-81
2024/02/03 11:34:27;;;;;;;14.02;3.10;;;;;;;;;;5017643;28;20123;-81
2024/02/03 11:36:55;;;;;;;12.25;2.80;;;;;;;;;;5036494;28;20037;-86
2024/02/03 11:39:35;;;;;;;8.83;3.20;;;;;;;;;;5016669;28;20555;-83
2024/02/03 11:42:04;;;;;;;9.77;3.45;;;;;;;;;;5050932;28;20045;-83
2024/02/03 11:44:43;;;;;;;8.15;2.25;;;;;;;;;;5042062;28;20045;-89
2024/02/03 11:47:10;;;;;;;11.30;2.30;;;;;;;;;;5050364;28;20143;-83
2024/02/03 11:49:36;;;;;;;4.75;2.30;;;;;;;;;;5019953;28;20037;-81
2024/02/03 11:52:05;;;;;;;3.28;1.60;;;;;;;;;;5053324;28;20068;-82
2024/02/03 11:54:32;;;;;;;4.30;1.80;;;;;;;;;;5036154;28;20045;-80
2024/02/03 11:56:59;;;;;;;3.38;1.40;;;;;;;;;;5036328;28;20132;-84
2024/02/03 11:59:27;;;;;;;2.75;1.00;;;;;;;;;;5036335;28;20036;-83
2024/02/03 12:01:55;;;;;;;2.92;1.20;;;;;;;;;;5032968;28;20488;-83
2024/02/03 12:04:26;;;;;;;1.25;0.82;;;;;;;;;;5022743;28;20046;-83
2024/02/03 12:06:55;;;;;;;3.90;0.80;;;;;;;;;;5054432;28;20140;-83
2024/02/03 12:09:22;;;;;;;2.03;0.80;;;;;;;;;;5019284;28;20045;-83
2024/02/03 12:11:52;;;;;;;2.97;0.75;;;;;;;;;;5019714;28;20041;-83
2024/02/03 12:14:19;;;;;;;1.58;0.80;;;;;;;;;;5019510;28;20049;-83
2024/02/03 12:16:47;;;;;;;1.13;0.90;;;;;;;;;;5014258;28;20079;-83
2024/02/03 12:19:14;;;;;;;2.90;0.75;;;;;;;;;;5019329;28;20106;-83
2024/02/03 12:21:41;;;;;;;2.40;0.60;;;;;;;;;;5018787;28;20120;-83
2024/02/03 12:24:10;;;;;;;2.33;0.82;;;;;;;;;;5034335;28;20053;-82
2024/02/03 12:26:39;;;;;;;2.25;0.60;;;;;;;;;;5018511;28;20543;-83
2024/02/03 12:29:06;;;;;;;;;;;;;;;;;;5034596;28;20029;-83
2024/02/03 12:31:33;;;;;;;3.22;0.50;;;;;;;;;;5043996;28;20016;-83
2024/02/03 12:33:59;;;;;;;1.10;0.55;;;;;;;;;;5019621;28;20048;-82
2024/02/03 12:36:28;;;;;;;1.77;0.57;;;;;;;;;;5050144;28;20068;-83
2024/02/03 12:38:57;;;;;;;1.13;0.68;;;;;;;;;;5036122;28;20049;-83
2024/02/03 12:41:25;;;;;;;;;;;;;;;;;;5019258;28;20079;-84
2024/02/03 12:43:51;;;;;;;2.55;0.60;;;;;;;;;;5036050;28;19921;-83
2024/02/03 12:46:18;;;;;;;3.33;0.88;;;;;;;;;;5019025;28;20116;-83
2024/02/03 12:48:46;;;;;;;3.13;1.65;;;;;;;;;;5053638;28;20044;-83
2024/02/03 12:51:13;;;;;;;0.90;0.70;;;;;;;;;;5035666;28;20049;-83
2024/02/03 12:53:41;;;;;;;1.70;0.70;;;;;;;;;;5035073;28;20581;-89
2024/02/03 12:56:09;;;;;;;1.98;0.77;;;;;;;;;;5035161;28;20044;-82
2024/02/03 12:58:36;;;;;;;1.75;0.60;;;;;;;;;;5035726;28;20128;-83
2024/02/03 13:01:03;;;;;;;3.80;1.00;;;;;;;;;;5035320;28;20440;-82
2024/02/03 13:03:32;;;;;;;2.47;1.27;;;;;;;;;;5035488;28;20076;-90
2024/02/03 13:06:00;;;;;;;3.95;3.10;;;;;;;;;;5019314;28;20106;-82
2024/02/03 13:08:27;;;;;;;2.90;2.17;;;;;;;;;;5052542;28;20079;-83
2024/02/03 13:10:54;;;;;;;5.05;2.58;;;;;;;;;;5035183;28;20383;-83
2024/02/03 13:13:21;;;;;;;2.42;0.80;;;;;;;;;;5034484;28;20064;-83
2024/02/03 13:15:47;;;;;;;0.90;0.60;;;;;;;;;;5035493;28;20059;-83
2024/02/03 13:18:14;;;;;;;0.98;0.73;;;;;;;;;;5034614;28;20419;-83
2024/02/03 13:20:41;;;;;;;1.10;1.00;;;;;;;;;;5035259;28;20048;-83
2024/02/03 13:23:08;;;;;;;2.83;1.40;;;;;;;;;;5052668;28;20534;-82
2024/02/03 13:25:35;;;;;;;1.55;0.60;;;;;;;;;;5028533;28;20052;-83
2024/02/03 13:28:03;;;;;;;1.85;0.88;;;;;;;;;;5016907;28;20102;-83
2024/02/03 13:30:30;;;;;;;;;;;;;;;;;;5033096;28;20044;-83
2024/02/03 13:32:58;;;;;;;1.45;0.77;;;;;;;;;;5049424;28;19921;-83
2024/02/03 13:35:27;;;;;;;1.30;0.65;;;;;;;;;;5017878;28;20115;-83
2024/02/03 13:37:53;;;;;;;1.25;0.80;;;;;;;;;;5018781;28;20552;-83
2024/02/03 13:40:20;;;;;;;1.83;0.63;;;;;;;;;;5054592;28;20386;-82
2024/02/03 13:42:51;;;;;;;2.47;1.02;;;;;;;;;;5047901;28;20037;-83
2024/02/03 13:45:18;;;;;;;1.65;0.70;;;;;;;;;;5032345;28;20041;-83
2024/02/03 13:47:49;;;;;;;3.60;1.10;;;;;;;;;;5062577;28;20045;-83
2024/02/03 13:50:18;;;;;;;1.30;0.70;;;;;;;;;;5034704;28;20051;-83
2024/02/03 13:52:45;;;;;;;1.13;0.60;;;;;;;;;;5036773;28;20045;-83
2024/02/03 13:55:12;;;;;;;1.75;0.68;;;;;;;;;;5052952;28;20047;-82
2024/02/03 13:57:39;;;;;;;2.58;0.70;;;;;;;;;;5062498;28;20040;-84
2024/02/03 14:00:07;;;;;;;1.42;0.57;;;;;;;;;;5064677;28;20115;-84
2024/02/03 14:02:34;;;;;;;4.03;1.05;;;;;;;;;;5042911;28;20068;-83
2024/02/03 14:05:04;;;;;;;1.10;0.50;;;;;;;;;;5044978;28;20037;-82
2024/02/03 14:07:32;;;;;;;3.58;1.20;;;;;;;;;;5060771;28;20052;-83
2024/02/03 14:10:00;;;;;;;3.55;1.10;;;;;;;;;;5052420;28;20041;-84
2024/02/03 14:12:26;;;;;;;8.82;2.08;;;;;;;;;;5033924;28;20060;-84
2024/02/03 14:14:53;;;;;;;10.30;2.92;;;;;;;;;;5034679;28;20049;-84
2024/02/03 14:17:20;;;;;;;4.72;1.02;;;;;;;;;;5018192;28;20049;-84
2024/02/03 14:19:46;;;;;;;2.75;0.70;;;;;;;;;;5038313;28;20091;-83
2024/02/03 14:22:13;;;;;;;4.07;1.02;;;;;;;;;;5038628;28;20132;-84
2024/02/03 14:24:41;;;;;;;2.17;0.90;;;;;;;;;;5054751;28;20044;-84
2024/02/03 14:27:09;;;;;;;10.50;7.55;;;;;;;;;;5058654;28;20048;-83
2024/02/03 14:29:35;;;;;;;10.40;5.78;;;;;;;;;;5041828;28;20475;-83
2024/02/03 14:32:04;;;;;;;3.30;2.30;;;;;;;;;;5058431;28;20041;-84
2024/02/03 14:34:30;;;;;;;3.55;1.38;;;;;;;;;;5058566;28;20039;-84
2024/02/03 14:36:58;;;;;;;4.32;1.30;;;;;;;;;;5058393;28;20455;-83
2024/02/03 14:39:25;;;;;;;3.47;0.98;;;;;;;;;;5018992;28;20041;-84
2024/02/03 14:41:53;;;;;;;5.28;1.83;;;;;;;;;;5066316;28;20032;-84